Onion Creek, California Weather observations

Data are for observation ending at time listed.
 Day   Time    Ave.   Ave.  Ave.  Vector   Max.   Stn.    Total    Solar   Ave.   Snow 
  of    of     Air    Rel.  Wind   Wind    Wind   Baro.  Precip.   Rad.    Soil   Depth
Year   Day     Temp.  Hum.  Speed  Dir.    Gust   Pres.                    Temp.       
2016   (PST)    F      %     mph   deg.    mph     mb.     in.     W/m2     F      in. 
---------------------------------------------------------------------------------------  
 268    2:40   41.4    78    0.8    63      2.3   836.3   48.44       0    49.3   999.0
 268    2:50   41.3    78    0.0   159      0.6   836.3   48.40       0    49.1   999.0
 268    3:00   40.9    78    0.6   177      2.2   836.3   48.48       0    49.0   999.0
 268    3:10   41.0    78    1.4    30      3.6   836.2   48.44       0    48.9   999.0
 268    3:20   41.5    76    0.8    62      2.4   836.1   48.44       0    48.8   999.0
 268    3:30   42.0    75    1.0    93      3.6   836.3   48.44       0    48.7   999.0
 268    3:40   41.5    76    0.7   281      2.3   836.3   48.44       0    48.6   999.0
 268    3:50   40.9    78    0.8    48      2.7   836.5   48.44       0    48.5   999.0
 268    4:00   40.9    78    1.3    64      3.7   836.8   48.44       0    48.3   999.0
 268    4:10   42.4    76    1.0    57      4.2   836.9   48.44       0    48.2   999.0
 268    4:20   42.4    75    1.1    97      3.3   836.8   48.44       0    48.1   999.0
 268    4:30   41.9    76    1.2   219      3.3   836.8   48.44       0    48.0   999.0
 268    4:40   41.1    78    1.3   357      5.9   836.7   48.44       0    47.9   999.0
 268    4:50   41.6    77    1.8   175      6.8   836.6   48.44       0    47.8   999.0
 268    5:00   41.2    77    1.3   214      3.3   836.5   48.44       0    47.8   999.0
 268    5:10   40.8    80    1.0   124      2.5   836.6   48.44       0    47.6   999.0
 268    5:20   41.3    79    1.3    62      3.4   836.6   48.40       0    47.6   999.0
 268    5:30   43.3    74    2.4    91      9.2   836.6   48.44       0    47.5   999.0
 268    5:40   46.0    68    2.5    76      9.1   836.7   48.48       0    47.4   999.0
 268    5:50   46.8    67    2.0    62      6.1   836.7   48.44       2    47.3   999.0
 268    6:00   46.5    68    1.2   334      4.4   836.8   48.44       4    47.2   999.0
 268    6:10   44.8    71    1.8   244      5.6   836.9   48.44       6    47.2   999.0
 268    6:20   44.0    73    1.6   273      3.9   837.0   48.48       8    47.1   999.0
 268    6:30   45.5    71    2.7    50     12.1   837.1   48.44       9    47.1   999.0
 268    6:40   47.4    66    2.4    38      7.5   837.2   48.44      10    47.0   999.0
 268    6:50   47.5    66    2.0    71      9.6   837.3   48.44      11    47.0   999.0
 268    7:00   47.5    65    2.0   155      6.4   837.2   48.44      12    46.9   999.0
 268    7:10   46.7    66    2.5   116      6.4   837.2   48.44      13    46.9   999.0
 268    7:20   47.8    62    2.0    38      8.0   837.0   48.44      15    46.9   999.0
 268    7:30   47.6    62    2.1     1      7.4   836.8   48.48      16    46.9   999.0
 268    7:40   48.6    59    2.7     5      9.5   836.7   48.48      19    46.9   999.0
 268    7:50   49.6    56    2.0   344      8.1   836.8   48.44      23    46.9   999.0
 268    8:00   50.3    54    2.7   318     11.2   836.9   48.44     149    46.9   999.0
 268    8:10   51.8    48    2.4    17      8.7   837.2   48.44     452    46.9   999.0
 268    8:20   53.9    44    1.4   324      5.0   837.1   48.44     487    47.0   999.0
 268    8:30   54.8    44    2.1   318      7.9   837.2   48.44     519    47.0   999.0
 268    8:40   55.6    44    1.9   162      4.9   837.3   48.48     551    47.0   999.0
 268    8:50   56.4    41    2.3    64      5.6   837.5   48.48     582    47.1   999.0
 268    9:00   56.6    43    2.1   320      9.8   837.6   48.48     612    47.2   999.0
 268    9:10   57.9    41    1.7   330      6.1   837.7   48.44     638    47.3   999.0
 268    9:20   58.6    39    2.2   329      7.0   837.8   48.44     660    47.5   999.0
 268    9:30   59.8    38    1.5   315      4.7   838.0   48.44     680    47.6   999.0
 268    9:40   60.4    36    1.8    38      7.1   838.1   48.44     704    47.8   999.0
 268    9:50   61.5    30    1.8   324      7.5   838.1   48.40     727    48.0   999.0
 268   10:00   63.3    28    1.9   307      6.1   838.2   48.44     748    48.3   999.0
 268   10:10   63.1    26    3.0   345      8.3   838.3   48.44     767    48.6   999.0
 268   10:20   63.0    25    2.9    46     11.8   838.4   48.44     788    49.1   999.0
 268   10:30   63.5    21    3.7    15     14.3   838.3   48.48     809    49.6   999.0
 268   10:40   64.1    20    2.9   350      9.3   838.2   48.48     827    50.2   999.0
 268   10:50   65.6    19    2.7   330      7.0   838.2   48.48     839    50.9   999.0
 268   11:00   66.2    19    2.4   317      9.6   838.3   48.48     851    51.5   999.0
 268   11:10   66.1    18    3.0    35      8.6   838.4   48.48     860    52.2   999.0
 268   11:20   66.3    17    3.5   312     10.7   838.6   48.48     868    53.0   999.0
 268   11:30   66.8    17    2.4   346      7.7   838.6   48.48     877    53.7   999.0
 268   11:40   67.8    18    2.1   316      8.7   838.6   48.48     882    54.4   999.0
 268   11:50   68.6    17    2.8   316      7.9   838.7   48.52     884    55.1   999.0
 268   12:00   68.3    17    3.3   304      9.6   838.6   48.48     885    55.7   999.0
 268   12:10   69.9    17    2.4   312      5.3   838.6   48.48     884    56.4   999.0
 268   12:20   70.4    16    2.0   321      7.2   838.6   48.44     878    56.9   999.0
 268   12:30   69.4    17    2.4    16     10.8   838.7   48.48     872    57.5   999.0
 268   12:40   70.1    16    2.9   255      9.6   838.6   48.48     866    58.0   999.0
 268   12:50   70.2    15    4.2   145     14.5   838.6   48.48     857    58.5   999.0
 268   13:00   70.3    14    2.3   160      5.0   838.6   48.44     847    58.9   999.0
 268   13:10   71.3    12    2.5    41      8.4   838.5   48.48     836    59.5   999.0
 268   13:20   71.6    11    2.8   328      7.2   838.6   48.44     822    60.0   999.0
 268   13:30   71.1    11    2.7   239      8.1   838.5   48.44     804    60.6   999.0
 268   13:40   72.3    10    2.2   283      5.1   838.5   48.44     780    61.2   999.0
 268   13:50   72.0     9    3.2   141      8.8   838.5   48.44     758    61.9   999.0
 268   14:00   72.7    10    2.3   333      6.9   838.6   48.44     736    62.5   999.0
 268   14:10   72.4     9    2.7   314      6.6   838.6   48.44     714    63.1   999.0
 268   14:20   73.5     9    3.3   289      9.9   838.6   48.40     689    63.7   999.0
 268   14:30   73.9     8    2.3    53      9.5   838.6   48.44     665    64.2   999.0
 268   14:40   73.8     9    3.2   336     10.7   838.7   48.44     645    64.7   999.0
 268   14:50   73.4    10    1.9   290      5.3   838.6   48.40     620    65.1   999.0
 268   15:00   73.4     9    2.6   341      7.2   838.6   48.37     590    65.4   999.0
 268   15:10   72.8     7    3.1    83      7.5   838.7   48.37     560    65.6   999.0
 268   15:20   73.5     8    2.3    19      9.5   838.7   48.37     529    65.6   999.0
 268   15:30   74.6     9    2.2   227      5.9   838.7   48.40     496    65.6   999.0
 268   15:40   73.4     9    1.6    71     10.0   838.7   48.37     462    65.6   999.0
 268   15:50   73.0    10    2.4    59      5.6   838.8   48.40     427    65.4   999.0
 268   16:00   72.1    10    2.3   170      4.8   838.8   48.40     393    65.3   999.0
 268   16:10   71.9    11    2.1   345      5.4   838.8   48.40     302    65.1   999.0
 268   16:20   70.8    11    2.4   312      7.1   838.8   48.40     133    64.9   999.0
 268   16:30   70.6    11    1.7   215      5.0   838.8   48.40      45    64.7   999.0
 268   16:40   70.1    11    2.8   119      8.7   838.7   48.40      53    64.5   999.0
 268   16:50   69.7    11    1.2   100      4.4   838.8   48.40      59    64.3   999.0
 268   17:00   69.3    12    2.5   107      9.9   838.8   48.40      56    64.1   999.0
 268   17:10   68.7    11    2.7    85      9.7   838.8   48.40      37    63.9   999.0
 268   17:20   68.0    12    1.8    78      5.2   838.8   48.40      20    63.7   999.0
 268   17:30   67.2    12    3.0   110      9.3   838.9   48.40      10    63.4   999.0
 268   17:40   66.3    12    3.2   116      8.8   839.0   48.40       7    63.2   999.0
 268   17:50   65.3    13    1.9    96      5.5   839.1   48.40       5    63.0   999.0
 268   18:00   64.5    13    2.7   144      6.1   839.1   48.40       3    62.8   999.0
 268   18:10   62.5    16    1.3    96      3.7   839.1   48.40       1    62.6   999.0
 268   18:20   61.6    15    2.0    45      6.6   839.2   48.44       0    62.4   999.0
 268   18:30   60.9    17    2.2    41      7.6   839.3   48.40       0    62.1   999.0
 268   18:40   60.0    17    1.0     3      3.1   839.4   48.44       0    61.9   999.0
 268   18:50   59.0    17    0.7    33      3.9   839.4   48.40       0    61.7   999.0
 268   19:00   59.2    15    1.8    29      7.0   839.4   48.40       0    61.4   999.0
 268   19:10   59.6    15    1.7    31      7.7   839.5   48.44       0    61.2   999.0
 268   19:20   59.3    16    1.4    61      4.6   839.5   48.40       0    60.9   999.0
 268   19:30   59.5    18    2.8    32      8.1   839.7   48.44       0    60.7   999.0
 268   19:40   59.8    19    2.4    44      6.5   839.9   48.40       0    60.5   999.0
 268   19:50   59.9    19    2.5    61      8.3   840.0   48.40       0    60.2   999.0
 268   20:00   59.8    20    2.0    70      7.0   840.2   48.40       0    60.0   999.0
 268   20:10   59.4    21    2.6    71      8.3   840.2   48.40       0    59.8   999.0
 268   20:20   59.2    20    2.6    97      8.3   840.2   48.44       0    59.6   999.0
 268   20:30   59.1    20    2.6   115      7.6   840.1   48.40       0    59.3   999.0
 268   20:40   58.7    20    2.4   115      7.3   840.1   48.40       0    59.1   999.0
 268   20:50   58.2    20    2.0   107      6.4   840.0   48.44       0    58.9   999.0
 268   21:00   57.6    20    2.9    98      7.2   840.0   48.40       0    58.8   999.0
 268   21:10   58.2    20    3.7   125      8.7   840.1   48.40       0    58.6   999.0
 268   21:20   58.5    20    2.6   107      8.1   840.3   48.44       0    58.4   999.0
 268   21:30   58.3    20    2.1    77      6.0   840.4   48.44       0    58.2   999.0
 268   21:40   57.2    22    1.9    97      6.9   840.4   48.44       0    58.0   999.0
 268   21:50   55.9    23    2.3   111      6.1   840.4   48.40       0    57.9   999.0
 268   22:00   54.6    25    1.5   111      5.9   840.3   48.40       0    57.7   999.0
 268   22:10   55.0    25    1.8    95      7.4   840.2   48.44       0    57.5   999.0
 268   22:20   56.3    24    2.5    88      8.4   840.1   48.44       0    57.4   999.0
 268   22:30   56.7    24    2.8    88      8.0   840.0   48.40       0    57.2   999.0
 268   22:40   55.8    25    1.8   152      4.5   840.1   48.40       0    57.1   999.0
 268   22:50   54.3    26    1.6   242      5.0   840.2   48.40       0    56.9   999.0
 268   23:00   53.8    27    1.7   203      4.8   840.2   48.40       0    56.8   999.0
 268   23:10   52.5    29    1.6   207      4.2   840.2   48.44       0    56.6   999.0
 268   23:20   51.6    30    1.7   149      4.3   840.1   48.44       0    56.4   999.0
 268   23:30   51.6    29    1.0   195      3.7   840.1   48.40       0    56.3   999.0
 268   23:40   51.7    29    1.6   229      6.6   840.0   48.40       0    56.2   999.0
 268   23:50   52.6    27    1.9   203      6.3   840.0   48.44       0    56.0   999.0
 269    0:00   53.3    24    2.7   209      6.7   839.9   48.40       0    55.9   999.0
 269    0:10   56.0    20    1.9   236      5.8   839.9   48.44       0    55.7   999.0
 269    0:20   57.6    18    2.5   167      6.7   839.8   48.40       0    55.5   999.0
 269    0:30   58.7    17    2.4    14      9.1   839.7   48.44       0    55.4   999.0
 269    0:40   58.7    18    2.7   258     10.0   839.8   48.40       0    55.3   999.0
 269    0:50   58.6    18    3.5   120     10.9   839.8   48.44       0    55.1   999.0
 269    1:00   59.1    18    3.2   358     17.8   839.8   48.44       0    55.0   999.0
 269    1:10   59.0    18    3.0    34      9.3   839.7   48.40       0    54.9   999.0
 269    1:20   58.8    18    2.6    85      7.7   839.7   48.40       0    54.8   999.0
 269    1:30   58.6    19    2.9   344     11.0   839.7   48.40       0    54.7   999.0
 269    1:40   58.0    20    3.4   332     15.6   839.7   48.40       0    54.6   999.0
 269    1:50   57.7    20    3.0   313      9.6   839.8   48.44       0    54.6   999.0
 269    2:00   57.7    20    2.9   129     11.6   839.7   48.40       0    54.5   999.0
 269    2:10   57.9    20    3.8    20      9.3   839.5   48.44       0    54.4   999.0
 269    2:20   58.2    20    3.0    65     12.9   839.6   48.44       0    54.4   999.0
 269    2:30   57.8    21    2.7   106      8.8   839.6   48.44       0    54.3   999.0

Return to Onion Creek graphs page.


Western Regional Climate Center,wrcc@dri.edu